^^
Station Historical Data
Daily Summary for June 1, 2017 Units:  Both    English   Metric
« Previous Day
Next Day »
Daily Weekly Monthly Yearly Custom
  High: Low: Average:
Temperature: 73.6 °F /  23.1 °C 42.3 °F /  5.7 °C 56.8 °F /  13.8 °C
Dew Point: 41.7 °F /  5.4 °C 33.6 °F /  0.9 °C 37.1 °F /  2.8 °C
Humidity: 78% 25% 51%
Wind Speed: 6.9mph /  11.1km/h - 0.5mph /  0.8km/h
Wind Gust: 9.0mph /  14.5km/h - -
Wind- - SSE
Pressure: 30.47 in /  1031.7 hPa 30.33 in /  1027 hPa -
Precipitation: 0.00 in /  0 mm    
Historical Graphs
 
 
Tabular Data for June 1, 2017
Time Temperature Dew Point Pressure Wind Wind Speed Wind Gust Humidity Rainfall Rate (Hourly) solar Conditions
00:01 48.9 °F /  9.4 °C 35.6 °F /  2 °C 30.42in /  1030hPa East 0.9mph /  1.4km/h 1.0mph /  1.6km/h 60% 0.00in /  0mm 0.0 W/m2
00:07 48.9 °F /  9.4 °C 35.6 °F /  2 °C 30.42in /  1030hPa East 0.9mph /  1.4km/h 1.0mph /  1.6km/h 60% 0.00in /  0mm 0.0 W/m2
00:13 48.9 °F /  9.4 °C 36.1 °F /  2.3 °C 30.42in /  1030hPa East 2.0mph /  3.2km/h 2.0mph /  3.2km/h 61% 0.00in /  0mm 0.0 W/m2
00:19 48.7 °F /  9.3 °C 36.0 °F /  2.2 °C 30.42in /  1030hPa ESE 0.9mph /  1.4km/h 1.0mph /  1.6km/h 61% 0.00in /  0mm 0.0 W/m2
00:25 48.7 °F /  9.3 °C 36.3 °F /  2.4 °C 30.42in /  1030hPa ENE 0.9mph /  1.4km/h 1.0mph /  1.6km/h 62% 0.00in /  0mm 0.0 W/m2
00:31 48.7 °F /  9.3 °C 36.3 °F /  2.4 °C 30.42in /  1030hPa Calm     62% 0.00in /  0mm 0.0 W/m2
00:37 48.7 °F /  9.3 °C 36.3 °F /  2.4 °C 30.42in /  1030hPa Calm     62% 0.00in /  0mm 0.0 W/m2
00:44 48.7 °F /  9.3 °C 36.7 °F /  2.6 °C 30.42in /  1030hPa Calm     63% 0.00in /  0mm 0.0 W/m2
00:50 48.6 °F /  9.2 °C 36.5 °F /  2.5 °C 30.42in /  1030hPa Calm     63% 0.00in /  0mm 0.0 W/m2
00:56 48.6 °F /  9.2 °C 36.1 °F /  2.3 °C 30.42in /  1030hPa Calm     62% 0.00in /  0mm 0.0 W/m2
01:02 48.0 °F /  8.9 °C 36.0 °F /  2.2 °C 30.42in /  1030hPa Calm     63% 0.00in /  0mm 0.0 W/m2
01:08 47.8 °F /  8.8 °C 36.7 °F /  2.6 °C 30.42in /  1030hPa Calm     65% 0.00in /  0mm 0.0 W/m2
01:14 47.7 °F /  8.7 °C 36.9 °F /  2.7 °C 30.42in /  1030hPa Calm     66% 0.00in /  0mm 0.0 W/m2
01:20 47.5 °F /  8.6 °C 36.7 °F /  2.6 °C 30.42in /  1030hPa Calm     66% 0.00in /  0mm 0.0 W/m2
01:26 47.5 °F /  8.6 °C 36.7 °F /  2.6 °C 30.42in /  1030hPa Calm   2.0mph /  3.2km/h 66% 0.00in /  0mm 0.0 W/m2
01:32 47.1 °F /  8.4 °C 36.0 °F /  2.2 °C 30.42in /  1030hPa Calm   1.0mph /  1.6km/h 65% 0.00in /  0mm 0.0 W/m2
01:38 47.1 °F /  8.4 °C 36.3 °F /  2.4 °C 30.42in /  1030hPa Calm   1.0mph /  1.6km/h 66% 0.00in /  0mm 0.0 W/m2
01:44 47.1 °F /  8.4 °C 36.7 °F /  2.6 °C 30.41in /  1029.7hPa Calm     67% 0.00in /  0mm 0.0 W/m2
01:50 47.1 °F /  8.4 °C 36.7 °F /  2.6 °C 30.42in /  1030hPa Calm     67% 0.00in /  0mm 0.0 W/m2
01:56 46.9 °F /  8.3 °C 36.5 °F /  2.5 °C 30.42in /  1030hPa Calm     67% 0.00in /  0mm 0.0 W/m2
02:02 46.8 °F /  8.2 °C 36.7 °F /  2.6 °C 30.41in /  1029.7hPa Calm     68% 0.00in /  0mm 0.0 W/m2
02:08 46.8 °F /  8.2 °C 36.7 °F /  2.6 °C 30.41in /  1029.7hPa Calm     68% 0.00in /  0mm 0.0 W/m2
02:14 46.6 °F /  8.1 °C 37.0 °F /  2.8 °C 30.41in /  1029.7hPa Calm     69% 0.00in /  0mm 0.0 W/m2
02:20 46.4 °F /  8 °C 36.9 °F /  2.7 °C 30.41in /  1029.7hPa Calm     69% 0.00in /  0mm 0.0 W/m2
02:26 46.2 °F /  7.9 °C 37.0 °F /  2.8 °C 30.41in /  1029.7hPa Calm     70% 0.00in /  0mm 0.0 W/m2
02:32 46.0 °F /  7.8 °C 36.9 °F /  2.7 °C 30.41in /  1029.7hPa Calm     70% 0.00in /  0mm 0.0 W/m2
02:38 46.0 °F /  7.8 °C 37.2 °F /  2.9 °C 30.41in /  1029.7hPa Calm     71% 0.00in /  0mm 0.0 W/m2
02:44 45.9 °F /  7.7 °C 37.0 °F /  2.8 °C 30.40in /  1029.3hPa Calm     71% 0.00in /  0mm 0.0 W/m2
02:50 45.9 °F /  7.7 °C 37.0 °F /  2.8 °C 30.40in /  1029.3hPa Calm     71% 0.00in /  0mm 0.0 W/m2
02:56 45.7 °F /  7.6 °C 36.9 °F /  2.7 °C 30.40in /  1029.3hPa Calm     71% 0.00in /  0mm 0.0 W/m2
03:02 45.5 °F /  7.5 °C 36.7 °F /  2.6 °C 30.40in /  1029.3hPa Calm     71% 0.00in /  0mm 0.0 W/m2
03:08 45.3 °F /  7.4 °C 36.5 °F /  2.5 °C 30.40in /  1029.3hPa Calm     71% 0.00in /  0mm 0.0 W/m2
03:16 45.3 °F /  7.4 °C 36.9 °F /  2.7 °C 30.40in /  1029.3hPa Calm     72% 0.00in /  0mm 0.0 W/m2
03:22 45.1 °F /  7.3 °C 36.7 °F /  2.6 °C 30.40in /  1029.3hPa Calm     72% 0.00in /  0mm 0.0 W/m2
03:28 45.1 °F /  7.3 °C 36.7 °F /  2.6 °C 30.40in /  1029.3hPa Calm     72% 0.00in /  0mm 0.0 W/m2
03:34 45.0 °F /  7.2 °C 36.5 °F /  2.5 °C 30.40in /  1029.3hPa Calm     72% 0.00in /  0mm 0.0 W/m2
03:40 45.0 °F /  7.2 °C 36.5 °F /  2.5 °C 30.40in /  1029.3hPa Calm     72% 0.00in /  0mm 0.0 W/m2
03:46 44.8 °F /  7.1 °C 36.7 °F /  2.6 °C 30.40in /  1029.3hPa Calm     73% 0.00in /  0mm 0.0 W/m2
03:52 44.4 °F /  6.9 °C 36.3 °F /  2.4 °C 30.40in /  1029.3hPa Calm     73% 0.00in /  0mm 0.0 W/m2
03:58 44.4 °F /  6.9 °C 36.3 °F /  2.4 °C 30.40in /  1029.3hPa Calm     73% 0.00in /  0mm 0.0 W/m2
04:04 44.2 °F /  6.8 °C 36.5 °F /  2.5 °C 30.41in /  1029.7hPa Calm     74% 0.00in /  0mm 0.0 W/m2
04:10 44.1 °F /  6.7 °C 36.0 °F /  2.2 °C 30.41in /  1029.7hPa Calm     73% 0.00in /  0mm 0.0 W/m2
04:16 43.9 °F /  6.6 °C 35.8 °F /  2.1 °C 30.41in /  1029.7hPa Calm     73% 0.00in /  0mm 0.0 W/m2
04:22 43.5 °F /  6.4 °C 35.8 °F /  2.1 °C 30.41in /  1029.7hPa Calm     74% 0.00in /  0mm 0.0 W/m2
04:28 43.5 °F /  6.4 °C 36.1 °F /  2.3 °C 30.41in /  1029.7hPa Calm     75% 0.00in /  0mm 0.0 W/m2
04:34 43.3 °F /  6.3 °C 36.0 °F /  2.2 °C 30.41in /  1029.7hPa Calm     75% 0.00in /  0mm 0.0 W/m2
04:40 43.2 °F /  6.2 °C 35.4 °F /  1.9 °C 30.41in /  1029.7hPa Calm     74% 0.00in /  0mm 0.0 W/m2
04:46 43.2 °F /  6.2 °C 35.8 °F /  2.1 °C 30.41in /  1029.7hPa Calm     75% 0.00in /  0mm 0.0 W/m2
04:52 43.0 °F /  6.1 °C 35.6 °F /  2 °C 30.41in /  1029.7hPa Calm     75% 0.00in /  0mm 0.0 W/m2
04:58 42.8 °F /  6 °C 35.4 °F /  1.9 °C 30.41in /  1029.7hPa Calm     75% 0.00in /  0mm 0.0 W/m2
05:04 42.6 °F /  5.9 °C 35.6 °F /  2 °C 30.41in /  1029.7hPa Calm     76% 0.00in /  0mm 0.0 W/m2
05:10 42.6 °F /  5.9 °C 35.2 °F /  1.8 °C 30.41in /  1029.7hPa Calm     75% 0.00in /  0mm 0.0 W/m2
05:16 42.4 °F /  5.8 °C 35.1 °F /  1.7 °C 30.41in /  1029.7hPa Calm     75% 0.00in /  0mm 0.0 W/m2
05:22 42.4 °F /  5.8 °C 35.4 °F /  1.9 °C 30.41in /  1029.7hPa Calm     76% 0.00in /  0mm 0.0 W/m2
05:28 42.3 °F /  5.7 °C 35.2 °F /  1.8 °C 30.41in /  1029.7hPa Calm     76% 0.00in /  0mm 0.0 W/m2
05:34 42.3 °F /  5.7 °C 35.6 °F /  2 °C 30.42in /  1030hPa Calm     77% 0.00in /  0mm 0.0 W/m2
05:40 42.3 °F /  5.7 °C 36.0 °F /  2.2 °C 30.42in /  1030hPa Calm   2.0mph /  3.2km/h 78% 0.00in /  0mm 0.0 W/m2
05:46 42.3 °F /  5.7 °C 36.0 °F /  2.2 °C 30.42in /  1030hPa Calm   2.0mph /  3.2km/h 78% 0.00in /  0mm 0.0 W/m2
05:52 42.4 °F /  5.8 °C 36.1 °F /  2.3 °C 30.42in /  1030hPa Calm   1.0mph /  1.6km/h 78% 0.00in /  0mm 0.0 W/m2
05:58 43.0 °F /  6.1 °C 36.7 °F /  2.6 °C 30.42in /  1030hPa Calm     78% 0.00in /  0mm 0.0 W/m2
06:04 43.2 °F /  6.2 °C 36.5 °F /  2.5 °C 30.43in /  1030.4hPa Calm     77% 0.00in /  0mm 0.0 W/m2
06:10 43.2 °F /  6.2 °C 36.5 °F /  2.5 °C 30.43in /  1030.4hPa Calm   1.0mph /  1.6km/h 77% 0.00in /  0mm 0.0 W/m2
06:16 43.3 °F /  6.3 °C 36.7 °F /  2.6 °C 30.43in /  1030.4hPa Calm     77% 0.00in /  0mm 0.0 W/m2
06:23 43.5 °F /  6.4 °C 36.9 °F /  2.7 °C 30.43in /  1030.4hPa Calm     77% 0.00in /  0mm 0.0 W/m2
06:29 43.9 °F /  6.6 °C 36.5 °F /  2.5 °C 30.43in /  1030.4hPa Calm     75% 0.00in /  0mm 5.0 W/m2
06:35 44.1 °F /  6.7 °C 36.7 °F /  2.6 °C 30.43in /  1030.4hPa Calm   1.0mph /  1.6km/h 75% 0.00in /  0mm 7.0 W/m2
06:41 44.1 °F /  6.7 °C 36.7 °F /  2.6 °C 30.44in /  1030.7hPa Calm   1.0mph /  1.6km/h 75% 0.00in /  0mm 9.0 W/m2
06:47 44.1 °F /  6.7 °C 36.7 °F /  2.6 °C 30.44in /  1030.7hPa Calm   1.0mph /  1.6km/h 75% 0.00in /  0mm 12.0 W/m2
06:53 44.1 °F /  6.7 °C 36.7 °F /  2.6 °C 30.44in /  1030.7hPa Calm     75% 0.00in /  0mm 12.0 W/m2
06:59 44.4 °F /  6.9 °C 37.0 °F /  2.8 °C 30.44in /  1030.7hPa Calm     75% 0.00in /  0mm 14.0 W/m2
07:05 44.6 °F /  7 °C 36.9 °F /  2.7 °C 30.44in /  1030.7hPa Calm     74% 0.00in /  0mm 16.0 W/m2
07:11 44.8 °F /  7.1 °C 37.4 °F /  3 °C 30.45in /  1031hPa Calm   1.0mph /  1.6km/h 75% 0.00in /  0mm 18.0 W/m2
07:17 45.1 °F /  7.3 °C 37.8 °F /  3.2 °C 30.45in /  1031hPa ENE 0.9mph /  1.4km/h 1.0mph /  1.6km/h 75% 0.00in /  0mm 19.0 W/m2
07:23 45.3 °F /  7.4 °C 37.9 °F /  3.3 °C 30.45in /  1031hPa Calm     75% 0.00in /  0mm 21.0 W/m2
07:29 45.7 °F /  7.6 °C 38.3 °F /  3.5 °C 30.45in /  1031hPa Calm     75% 0.00in /  0mm 21.0 W/m2
07:35 46.0 °F /  7.8 °C 38.3 °F /  3.5 °C 30.46in /  1031.4hPa Calm     74% 0.00in /  0mm 23.0 W/m2
07:41 46.6 °F /  8.1 °C 38.7 °F /  3.7 °C 30.46in /  1031.4hPa Calm     74% 0.00in /  0mm 25.0 W/m2
07:47 47.5 °F /  8.6 °C 38.8 °F /  3.8 °C 30.46in /  1031.4hPa ENE 0.9mph /  1.4km/h 1.0mph /  1.6km/h 72% 0.00in /  0mm 25.0 W/m2
07:53 48.9 °F /  9.4 °C 39.6 °F /  4.2 °C 30.46in /  1031.4hPa Calm     70% 0.00in /  0mm 28.0 W/m2
07:59 50.4 °F /  10.2 °C 40.3 °F /  4.6 °C 30.46in /  1031.4hPa Calm   2.0mph /  3.2km/h 68% 0.00in /  0mm 116.0 W/m2
08:05 52.2 °F /  11.2 °C 40.8 °F /  4.9 °C 30.46in /  1031.4hPa NE 0.9mph /  1.4km/h 2.0mph /  3.2km/h 65% 0.00in /  0mm 316.0 W/m2
08:11 54.1 °F /  12.3 °C 41.0 °F /  5 °C 30.46in /  1031.4hPa East 0.9mph /  1.4km/h 2.0mph /  3.2km/h 61% 0.00in /  0mm 339.0 W/m2
08:17 55.9 °F /  13.3 °C 41.4 °F /  5.2 °C 30.46in /  1031.4hPa Calm   1.0mph /  1.6km/h 58% 0.00in /  0mm 359.0 W/m2
08:25 57.9 °F /  14.4 °C 41.4 °F /  5.2 °C 30.46in /  1031.4hPa Calm   2.0mph /  3.2km/h 54% 0.00in /  0mm 385.0 W/m2
08:31 59.2 °F /  15.1 °C 41.5 °F /  5.3 °C 30.46in /  1031.4hPa Calm   1.0mph /  1.6km/h 52% 0.00in /  0mm 403.0 W/m2
08:37 60.1 °F /  15.6 °C 41.4 °F /  5.2 °C 30.46in /  1031.4hPa Calm   2.0mph /  3.2km/h 50% 0.00in /  0mm 422.0 W/m2
08:43 61.0 °F /  16.1 °C 41.7 °F /  5.4 °C 30.46in /  1031.4hPa Calm     49% 0.00in /  0mm 438.0 W/m2
08:49 61.5 °F /  16.4 °C 41.7 °F /  5.4 °C 30.46in /  1031.4hPa NW 0.9mph /  1.4km/h 2.0mph /  3.2km/h 48% 0.00in /  0mm 454.0 W/m2
08:55 62.4 °F /  16.9 °C 41.4 °F /  5.2 °C 30.47in /  1031.7hPa NNW 2.0mph /  3.2km/h 3.0mph /  4.8km/h 46% 0.00in /  0mm 473.0 W/m2
09:01 63.3 °F /  17.4 °C 41.5 °F /  5.3 °C 30.47in /  1031.7hPa Calm   3.0mph /  4.8km/h 45% 0.00in /  0mm 490.0 W/m2
09:07 64.0 °F /  17.8 °C 41.2 °F /  5.1 °C 30.47in /  1031.7hPa WNW 6.9mph /  11.1km/h 7.0mph /  11.3km/h 43% 0.00in /  0mm 504.0 W/m2
09:13 64.6 °F /  18.1 °C 41.5 °F /  5.3 °C 30.47in /  1031.7hPa North 2.9mph /  4.7km/h 3.0mph /  4.8km/h 43% 0.00in /  0mm 520.0 W/m2
09:19 64.8 °F /  18.2 °C 41.2 °F /  5.1 °C 30.47in /  1031.7hPa North 4.9mph /  7.9km/h 6.0mph /  9.7km/h 42% 0.00in /  0mm 536.0 W/m2
09:25 64.8 °F /  18.2 °C 41.2 °F /  5.1 °C 30.47in /  1031.7hPa North 0.9mph /  1.4km/h 5.0mph /  8km/h 42% 0.00in /  0mm 554.0 W/m2
09:31 64.8 °F /  18.2 °C 40.5 °F /  4.7 °C 30.47in /  1031.7hPa ENE 2.0mph /  3.2km/h 4.0mph /  6.4km/h 41% 0.00in /  0mm 566.0 W/m2
09:37 65.1 °F /  18.4 °C 40.8 °F /  4.9 °C 30.47in /  1031.7hPa NNW 2.0mph /  3.2km/h 5.0mph /  8km/h 41% 0.00in /  0mm 578.0 W/m2
09:43 65.5 °F /  18.6 °C 41.2 °F /  5.1 °C 30.46in /  1031.4hPa NW 2.9mph /  4.7km/h 6.0mph /  9.7km/h 41% 0.00in /  0mm 591.0 W/m2
09:49 65.7 °F /  18.7 °C 41.4 °F /  5.2 °C 30.46in /  1031.4hPa Calm   3.0mph /  4.8km/h 41% 0.00in /  0mm 601.0 W/m2
09:55 66.0 °F /  18.9 °C 41.0 °F /  5 °C 30.46in /  1031.4hPa NE 2.9mph /  4.7km/h 6.0mph /  9.7km/h 40% 0.00in /  0mm 615.0 W/m2
10:01 66.6 °F /  19.2 °C 40.8 °F /  4.9 °C 30.46in /  1031.4hPa NNE 0.9mph /  1.4km/h 4.0mph /  6.4km/h 39% 0.00in /  0mm 628.0 W/m2
10:07 66.9 °F /  19.4 °C 41.2 °F /  5.1 °C 30.46in /  1031.4hPa NNE 4.0mph /  6.4km/h 5.0mph /  8km/h 39% 0.00in /  0mm 633.0 W/m2
10:14 66.9 °F /  19.4 °C 41.2 °F /  5.1 °C 30.46in /  1031.4hPa Calm   2.0mph /  3.2km/h 39% 0.00in /  0mm 642.0 W/m2
10:20 66.9 °F /  19.4 °C 41.2 °F /  5.1 °C 30.46in /  1031.4hPa North 2.0mph /  3.2km/h 4.0mph /  6.4km/h 39% 0.00in /  0mm 657.0 W/m2
10:26 67.5 °F /  19.7 °C 41.0 °F /  5 °C 30.45in /  1031hPa Calm   3.0mph /  4.8km/h 38% 0.00in /  0mm 664.0 W/m2
10:32 67.8 °F /  19.9 °C 41.4 °F /  5.2 °C 30.45in /  1031hPa Calm   4.0mph /  6.4km/h 38% 0.00in /  0mm 671.0 W/m2
10:38 67.8 °F /  19.9 °C 40.6 °F /  4.8 °C 30.44in /  1030.7hPa Calm   1.0mph /  1.6km/h 37% 0.00in /  0mm 673.0 W/m2
10:44 67.8 °F /  19.9 °C 41.4 °F /  5.2 °C 30.44in /  1030.7hPa NNE 0.9mph /  1.4km/h 2.0mph /  3.2km/h 38% 0.00in /  0mm 684.0 W/m2
10:50 67.6 °F /  19.8 °C 41.2 °F /  5.1 °C 30.43in /  1030.4hPa West 0.9mph /  1.4km/h 2.0mph /  3.2km/h 38% 0.00in /  0mm 691.0 W/m2
10:56 67.3 °F /  19.6 °C 40.1 °F /  4.5 °C 30.43in /  1030.4hPa Calm   3.0mph /  4.8km/h 37% 0.00in /  0mm 698.0 W/m2
11:02 67.5 °F /  19.7 °C 40.3 °F /  4.6 °C 30.43in /  1030.4hPa NNW 0.9mph /  1.4km/h 5.0mph /  8km/h 37% 0.00in /  0mm 701.0 W/m2
11:08 68.2 °F /  20.1 °C 40.3 °F /  4.6 °C 30.43in /  1030.4hPa Calm   4.0mph /  6.4km/h 36% 0.00in /  0mm 710.0 W/m2
11:15 68.7 °F /  20.4 °C 40.6 °F /  4.8 °C 30.43in /  1030.4hPa West 0.9mph /  1.4km/h 1.0mph /  1.6km/h 36% 0.00in /  0mm 712.0 W/m2
11:21 69.1 °F /  20.6 °C 39.6 °F /  4.2 °C 30.43in /  1030.4hPa ENE 0.9mph /  1.4km/h 7.0mph /  11.3km/h 34% 0.00in /  0mm 712.0 W/m2
11:27 69.6 °F /  20.9 °C 39.9 °F /  4.4 °C 30.42in /  1030hPa Calm   4.0mph /  6.4km/h 34% 0.00in /  0mm 719.0 W/m2
11:33 70.3 °F /  21.3 °C 39.0 °F /  3.9 °C 30.42in /  1030hPa NNW 2.9mph /  4.7km/h 3.0mph /  4.8km/h 32% 0.00in /  0mm 722.0 W/m2
11:39 70.7 °F /  21.5 °C 39.4 °F /  4.1 °C 30.42in /  1030hPa Calm   2.0mph /  3.2km/h 32% 0.00in /  0mm 715.0 W/m2
11:45 70.9 °F /  21.6 °C 38.7 °F /  3.7 °C 30.41in /  1029.7hPa Calm   6.0mph /  9.7km/h 31% 0.00in /  0mm 717.0 W/m2
11:51 71.2 °F /  21.8 °C 39.9 °F /  4.4 °C 30.41in /  1029.7hPa Calm   2.0mph /  3.2km/h 32% 0.00in /  0mm 708.0 W/m2
11:57 71.6 °F /  22 °C 40.1 °F /  4.5 °C 30.41in /  1029.7hPa North 0.9mph /  1.4km/h 5.0mph /  8km/h 32% 0.00in /  0mm 703.0 W/m2
12:03 71.8 °F /  22.1 °C 38.7 °F /  3.7 °C 30.40in /  1029.3hPa Calm   1.0mph /  1.6km/h 30% 0.00in /  0mm 705.0 W/m2
12:09 71.8 °F /  22.1 °C 39.6 °F /  4.2 °C 30.40in /  1029.3hPa WSW 2.9mph /  4.7km/h 6.0mph /  9.7km/h 31% 0.00in /  0mm 703.0 W/m2
12:15 71.6 °F /  22 °C 39.4 °F /  4.1 °C 30.40in /  1029.3hPa Calm   5.0mph /  8km/h 31% 0.00in /  0mm 701.0 W/m2
12:22 71.8 °F /  22.1 °C 38.7 °F /  3.7 °C 30.39in /  1029hPa NNW 2.0mph /  3.2km/h 6.0mph /  9.7km/h 30% 0.00in /  0mm 696.0 W/m2
12:28 72.0 °F /  22.2 °C 39.7 °F /  4.3 °C 30.38in /  1028.7hPa Calm   3.0mph /  4.8km/h 31% 0.00in /  0mm 684.0 W/m2
12:34 72.0 °F /  22.2 °C 40.5 °F /  4.7 °C 30.38in /  1028.7hPa Calm   1.0mph /  1.6km/h 32% 0.00in /  0mm 682.0 W/m2
12:40 72.0 °F /  22.2 °C 39.7 °F /  4.3 °C 30.38in /  1028.7hPa NE 2.9mph /  4.7km/h 7.0mph /  11.3km/h 31% 0.00in /  0mm 680.0 W/m2
12:46 72.0 °F /  22.2 °C 38.8 °F /  3.8 °C 30.38in /  1028.7hPa Calm   4.0mph /  6.4km/h 30% 0.00in /  0mm 671.0 W/m2
12:52 72.3 °F /  22.4 °C 39.2 °F /  4 °C 30.37in /  1028.3hPa NNE 2.9mph /  4.7km/h 5.0mph /  8km/h 30% 0.00in /  0mm 664.0 W/m2
12:58 72.5 °F /  22.5 °C 39.4 °F /  4.1 °C 30.36in /  1028hPa Calm   1.0mph /  1.6km/h 30% 0.00in /  0mm 656.0 W/m2
13:04 71.8 °F /  22.1 °C 38.7 °F /  3.7 °C 30.36in /  1028hPa WSW 2.0mph /  3.2km/h 5.0mph /  8km/h 30% 0.00in /  0mm 652.0 W/m2
13:11 71.4 °F /  21.9 °C 38.3 °F /  3.5 °C 30.35in /  1027.7hPa NNE 4.0mph /  6.4km/h 4.0mph /  6.4km/h 30% 0.00in /  0mm 643.0 W/m2
13:17 72.0 °F /  22.2 °C 39.7 °F /  4.3 °C 30.35in /  1027.7hPa NNW 2.9mph /  4.7km/h 4.0mph /  6.4km/h 31% 0.00in /  0mm 633.0 W/m2
13:23 72.5 °F /  22.5 °C 39.4 °F /  4.1 °C 30.35in /  1027.7hPa Calm   3.0mph /  4.8km/h 30% 0.00in /  0mm 621.0 W/m2
13:29 72.9 °F /  22.7 °C 39.6 °F /  4.2 °C 30.35in /  1027.7hPa West 0.9mph /  1.4km/h 7.0mph /  11.3km/h 30% 0.00in /  0mm 612.0 W/m2
13:35 73.0 °F /  22.8 °C 39.7 °F /  4.3 °C 30.35in /  1027.7hPa West 0.9mph /  1.4km/h 3.0mph /  4.8km/h 30% 0.00in /  0mm 601.0 W/m2
13:41 73.0 °F /  22.8 °C 38.8 °F /  3.8 °C 30.35in /  1027.7hPa NNE 0.9mph /  1.4km/h 3.0mph /  4.8km/h 29% 0.00in /  0mm 591.0 W/m2
13:47 73.0 °F /  22.8 °C 38.8 °F /  3.8 °C 30.35in /  1027.7hPa ENE 0.9mph /  1.4km/h 4.0mph /  6.4km/h 29% 0.00in /  0mm 571.0 W/m2
13:53 73.2 °F /  22.9 °C 39.0 °F /  3.9 °C 30.34in /  1027.3hPa Calm   3.0mph /  4.8km/h 29% 0.00in /  0mm 561.0 W/m2
13:59 73.2 °F /  22.9 °C 39.0 °F /  3.9 °C 30.34in /  1027.3hPa Calm   1.0mph /  1.6km/h 29% 0.00in /  0mm 548.0 W/m2
14:08 73.6 °F /  23.1 °C 39.4 °F /  4.1 °C 30.34in /  1027.3hPa Calm   7.0mph /  11.3km/h 29% 0.00in /  0mm 536.0 W/m2
14:14 73.6 °F /  23.1 °C 39.4 °F /  4.1 °C 30.34in /  1027.3hPa North 0.9mph /  1.4km/h 4.0mph /  6.4km/h 29% 0.00in /  0mm 512.0 W/m2
14:20 73.4 °F /  23 °C 39.2 °F /  4 °C 30.34in /  1027.3hPa NNW 0.9mph /  1.4km/h 3.0mph /  4.8km/h 29% 0.00in /  0mm 497.0 W/m2
14:26 73.2 °F /  22.9 °C 38.1 °F /  3.4 °C 30.34in /  1027.3hPa North 4.0mph /  6.4km/h 5.0mph /  8km/h 28% 0.00in /  0mm 482.0 W/m2
14:32 72.9 °F /  22.7 °C 37.8 °F /  3.2 °C 30.34in /  1027.3hPa NNE 2.9mph /  4.7km/h 9.0mph /  14.5km/h 28% 0.00in /  0mm 464.0 W/m2
14:38 72.9 °F /  22.7 °C 38.7 °F /  3.7 °C 30.33in /  1027hPa Calm   4.0mph /  6.4km/h 29% 0.00in /  0mm 448.0 W/m2
14:44 73.0 °F /  22.8 °C 38.8 °F /  3.8 °C 30.33in /  1027hPa WNW 0.9mph /  1.4km/h 5.0mph /  8km/h 29% 0.00in /  0mm 432.0 W/m2
14:51 72.9 °F /  22.7 °C 37.8 °F /  3.2 °C 30.33in /  1027hPa NNW 4.9mph /  7.9km/h 6.0mph /  9.7km/h 28% 0.00in /  0mm 413.0 W/m2
14:57 73.0 °F /  22.8 °C 37.9 °F /  3.3 °C 30.33in /  1027hPa Calm   2.0mph /  3.2km/h 28% 0.00in /  0mm 397.0 W/m2
15:03 72.9 °F /  22.7 °C 37.8 °F /  3.2 °C 30.33in /  1027hPa Calm   7.0mph /  11.3km/h 28% 0.00in /  0mm 380.0 W/m2
15:09 72.9 °F /  22.7 °C 37.8 °F /  3.2 °C 30.33in /  1027hPa SW 2.0mph /  3.2km/h 5.0mph /  8km/h 28% 0.00in /  0mm 360.0 W/m2
15:15 72.7 °F /  22.6 °C 37.8 °F /  3.2 °C 30.33in /  1027hPa NNE 2.9mph /  4.7km/h 5.0mph /  8km/h 28% 0.00in /  0mm 339.0 W/m2
15:21 72.3 °F /  22.4 °C 34.5 °F /  1.4 °C 30.34in /  1027.3hPa NNE 0.9mph /  1.4km/h 5.0mph /  8km/h 25% 0.00in /  0mm 127.0 W/m2
15:27 72.1 °F /  22.3 °C 38.1 °F /  3.4 °C 30.34in /  1027.3hPa NW 0.9mph /  1.4km/h 4.0mph /  6.4km/h 29% 0.00in /  0mm 47.0 W/m2
15:33 72.0 °F /  22.2 °C 37.9 °F /  3.3 °C 30.34in /  1027.3hPa Calm   1.0mph /  1.6km/h 29% 0.00in /  0mm 42.0 W/m2
15:40 71.4 °F /  21.9 °C 34.7 °F /  1.5 °C 30.34in /  1027.3hPa NNE 0.9mph /  1.4km/h 8.0mph /  12.9km/h 26% 0.00in /  0mm 39.0 W/m2
15:46 71.2 °F /  21.8 °C 33.6 °F /  0.9 °C 30.34in /  1027.3hPa NNW 0.9mph /  1.4km/h 2.0mph /  3.2km/h 25% 0.00in /  0mm 35.0 W/m2
15:52 70.9 °F /  21.6 °C 34.3 °F /  1.3 °C 30.34in /  1027.3hPa SE 2.0mph /  3.2km/h 6.0mph /  9.7km/h 26% 0.00in /  0mm 33.0 W/m2
15:58 70.7 °F /  21.5 °C 34.2 °F /  1.2 °C 30.35in /  1027.7hPa NNE 0.9mph /  1.4km/h 4.0mph /  6.4km/h 26% 0.00in /  0mm 30.0 W/m2
16:04 70.5 °F /  21.4 °C 34.9 °F /  1.6 °C 30.35in /  1027.7hPa Calm     27% 0.00in /  0mm 26.0 W/m2
16:10 70.2 °F /  21.2 °C 35.6 °F /  2 °C 30.35in /  1027.7hPa North 0.9mph /  1.4km/h 2.0mph /  3.2km/h 28% 0.00in /  0mm 23.0 W/m2
16:16 70.0 °F /  21.1 °C 34.5 °F /  1.4 °C 30.35in /  1027.7hPa NW 2.9mph /  4.7km/h 5.0mph /  8km/h 27% 0.00in /  0mm 21.0 W/m2
16:22 69.6 °F /  20.9 °C 35.1 °F /  1.7 °C 30.35in /  1027.7hPa Calm   2.0mph /  3.2km/h 28% 0.00in /  0mm 21.0 W/m2
16:29 69.4 °F /  20.8 °C 34.9 °F /  1.6 °C 30.35in /  1027.7hPa NNE 2.9mph /  4.7km/h 5.0mph /  8km/h 28% 0.00in /  0mm 19.0 W/m2
16:35 69.3 °F /  20.7 °C 34.7 °F /  1.5 °C 30.35in /  1027.7hPa NE 0.9mph /  1.4km/h 3.0mph /  4.8km/h 28% 0.00in /  0mm 18.0 W/m2
16:41 69.1 °F /  20.6 °C 34.5 °F /  1.4 °C 30.36in /  1028hPa NNE 2.9mph /  4.7km/h 5.0mph /  8km/h 28% 0.00in /  0mm 16.0 W/m2
16:47 68.9 °F /  20.5 °C 34.5 °F /  1.4 °C 30.36in /  1028hPa Calm   4.0mph /  6.4km/h 28% 0.00in /  0mm 14.0 W/m2
16:53 68.5 °F /  20.3 °C 35.1 °F /  1.7 °C 30.36in /  1028hPa NNE 2.0mph /  3.2km/h 4.0mph /  6.4km/h 29% 0.00in /  0mm 12.0 W/m2
16:59 68.4 °F /  20.2 °C 34.9 °F /  1.6 °C 30.36in /  1028hPa NNW 0.9mph /  1.4km/h 3.0mph /  4.8km/h 29% 0.00in /  0mm 11.0 W/m2
17:05 67.8 °F /  19.9 °C 36.1 °F /  2.3 °C 30.37in /  1028.3hPa Calm   1.0mph /  1.6km/h 31% 0.00in /  0mm 7.0 W/m2
17:12 67.5 °F /  19.7 °C 35.8 °F /  2.1 °C 30.37in /  1028.3hPa Calm   1.0mph /  1.6km/h 31% 0.00in /  0mm 5.0 W/m2
17:18 66.9 °F /  19.4 °C 36.1 °F /  2.3 °C 30.37in /  1028.3hPa Calm   1.0mph /  1.6km/h 32% 0.00in /  0mm 0.0 W/m2
17:24 66.4 °F /  19.1 °C 36.3 °F /  2.4 °C 30.37in /  1028.3hPa NE 0.9mph /  1.4km/h 3.0mph /  4.8km/h 33% 0.00in /  0mm 0.0 W/m2
17:30 65.7 °F /  18.7 °C 36.5 °F /  2.5 °C 30.37in /  1028.3hPa Calm   1.0mph /  1.6km/h 34% 0.00in /  0mm 0.0 W/m2
17:36 64.9 °F /  18.3 °C 36.7 °F /  2.6 °C 30.38in /  1028.7hPa Calm     35% 0.00in /  0mm 0.0 W/m2
17:42 64.0 °F /  17.8 °C 36.5 °F /  2.5 °C 30.38in /  1028.7hPa Calm     36% 0.00in /  0mm 0.0 W/m2
17:48 63.3 °F /  17.4 °C 36.7 °F /  2.6 °C 30.38in /  1028.7hPa Calm     37% 0.00in /  0mm 0.0 W/m2
17:55 62.6 °F /  17 °C 36.0 °F /  2.2 °C 30.38in /  1028.7hPa Calm     37% 0.00in /  0mm 0.0 W/m2
18:01 61.9 °F /  16.6 °C 36.0 °F /  2.2 °C 30.38in /  1028.7hPa Calm     38% 0.00in /  0mm 0.0 W/m2
18:07 61.2 °F /  16.2 °C 36.0 °F /  2.2 °C 30.38in /  1028.7hPa Calm     39% 0.00in /  0mm 0.0 W/m2
18:13 60.4 °F /  15.8 °C 36.0 °F /  2.2 °C 30.39in /  1029hPa Calm   1.0mph /  1.6km/h 40% 0.00in /  0mm 0.0 W/m2
18:19 59.7 °F /  15.4 °C 36.0 °F /  2.2 °C 30.39in /  1029hPa Calm     41% 0.00in /  0mm 0.0 W/m2
18:25 59.2 °F /  15.1 °C 36.1 °F /  2.3 °C 30.39in /  1029hPa Calm     42% 0.00in /  0mm 0.0 W/m2
18:31 58.5 °F /  14.7 °C 35.4 °F /  1.9 °C 30.39in /  1029hPa Calm   1.0mph /  1.6km/h 42% 0.00in /  0mm 0.0 W/m2
18:38 57.9 °F /  14.4 °C 35.6 °F /  2 °C 30.40in /  1029.3hPa Calm     43% 0.00in /  0mm 0.0 W/m2
18:44 57.6 °F /  14.2 °C 35.2 °F /  1.8 °C 30.40in /  1029.3hPa Calm     43% 0.00in /  0mm 0.0 W/m2
18:50 57.0 °F /  13.9 °C 35.2 °F /  1.8 °C 30.40in /  1029.3hPa Calm     44% 0.00in /  0mm 0.0 W/m2
18:56 56.7 °F /  13.7 °C 35.6 °F /  2 °C 30.40in /  1029.3hPa Calm     45% 0.00in /  0mm 0.0 W/m2
19:02 56.3 °F /  13.5 °C 35.8 °F /  2.1 °C 30.40in /  1029.3hPa Calm     46% 0.00in /  0mm 0.0 W/m2
19:08 55.8 °F /  13.2 °C 34.7 °F /  1.5 °C 30.40in /  1029.3hPa Calm     45% 0.00in /  0mm 0.0 W/m2
19:14 55.6 °F /  13.1 °C 35.6 °F /  2 °C 30.40in /  1029.3hPa Calm     47% 0.00in /  0mm 0.0 W/m2
19:20 55.0 °F /  12.8 °C 35.2 °F /  1.8 °C 30.41in /  1029.7hPa Calm     47% 0.00in /  0mm 0.0 W/m2
19:27 54.7 °F /  12.6 °C 34.9 °F /  1.6 °C 30.41in /  1029.7hPa Calm     47% 0.00in /  0mm 0.0 W/m2
19:33 54.1 °F /  12.3 °C 35.4 °F /  1.9 °C 30.41in /  1029.7hPa Calm     49% 0.00in /  0mm 0.0 W/m2
19:39 54.0 °F /  12.2 °C 35.8 °F /  2.1 °C 30.41in /  1029.7hPa Calm     50% 0.00in /  0mm 0.0 W/m2
19:45 53.6 °F /  12 °C 35.4 °F /  1.9 °C 30.41in /  1029.7hPa Calm     50% 0.00in /  0mm 0.0 W/m2
19:51 53.2 °F /  11.8 °C 35.1 °F /  1.7 °C 30.42in /  1030hPa Calm     50% 0.00in /  0mm 0.0 W/m2
19:57 53.1 °F /  11.7 °C 35.4 °F /  1.9 °C 30.42in /  1030hPa Calm     51% 0.00in /  0mm 0.0 W/m2
20:03 52.9 °F /  11.6 °C 35.2 °F /  1.8 °C 30.42in /  1030hPa Calm     51% 0.00in /  0mm 0.0 W/m2
20:09 52.5 °F /  11.4 °C 34.9 °F /  1.6 °C 30.42in /  1030hPa Calm     51% 0.00in /  0mm 0.0 W/m2
20:16 52.3 °F /  11.3 °C 34.7 °F /  1.5 °C 30.41in /  1029.7hPa Calm   2.0mph /  3.2km/h 51% 0.00in /  0mm 0.0 W/m2
20:22 52.3 °F /  11.3 °C 34.7 °F /  1.5 °C 30.41in /  1029.7hPa Calm     51% 0.00in /  0mm 0.0 W/m2
20:28 52.5 °F /  11.4 °C 34.9 °F /  1.6 °C 30.42in /  1030hPa Calm   1.0mph /  1.6km/h 51% 0.00in /  0mm 0.0 W/m2
20:34 52.5 °F /  11.4 °C 34.9 °F /  1.6 °C 30.42in /  1030hPa Calm   1.0mph /  1.6km/h 51% 0.00in /  0mm 0.0 W/m2
20:40 52.5 °F /  11.4 °C 34.9 °F /  1.6 °C 30.42in /  1030hPa Calm   1.0mph /  1.6km/h 51% 0.00in /  0mm 0.0 W/m2
20:46 52.7 °F /  11.5 °C 35.1 °F /  1.7 °C 30.42in /  1030hPa Calm     51% 0.00in /  0mm 0.0 W/m2
20:53 52.7 °F /  11.5 °C 35.1 °F /  1.7 °C 30.42in /  1030hPa Calm     51% 0.00in /  0mm 0.0 W/m2
20:59 52.5 °F /  11.4 °C 34.9 °F /  1.6 °C 30.42in /  1030hPa Calm   1.0mph /  1.6km/h 51% 0.00in /  0mm 0.0 W/m2
21:05 52.5 °F /  11.4 °C 34.9 °F /  1.6 °C 30.41in /  1029.7hPa Calm   1.0mph /  1.6km/h 51% 0.00in /  0mm 0.0 W/m2
21:11 52.3 °F /  11.3 °C 34.7 °F /  1.5 °C 30.41in /  1029.7hPa Calm   1.0mph /  1.6km/h 51% 0.00in /  0mm 0.0 W/m2
21:17 52.3 °F /  11.3 °C 34.7 °F /  1.5 °C 30.42in /  1030hPa Calm     51% 0.00in /  0mm 0.0 W/m2
21:24 52.2 °F /  11.2 °C 35.1 °F /  1.7 °C 30.41in /  1029.7hPa Calm   1.0mph /  1.6km/h 52% 0.00in /  0mm 0.0 W/m2
21:29 52.0 °F /  11.1 °C 34.9 °F /  1.6 °C 30.41in /  1029.7hPa Calm   1.0mph /  1.6km/h 52% 0.00in /  0mm 0.0 W/m2
21:35 52.0 °F /  11.1 °C 34.9 °F /  1.6 °C 30.41in /  1029.7hPa Calm   1.0mph /  1.6km/h 52% 0.00in /  0mm 0.0 W/m2
21:42 51.8 °F /  11 °C 34.7 °F /  1.5 °C 30.41in /  1029.7hPa Calm   2.0mph /  3.2km/h 52% 0.00in /  0mm 0.0 W/m2
21:48 51.6 °F /  10.9 °C 35.1 °F /  1.7 °C 30.41in /  1029.7hPa Calm   1.0mph /  1.6km/h 53% 0.00in /  0mm 0.0 W/m2
21:54 51.4 °F /  10.8 °C 34.9 °F /  1.6 °C 30.41in /  1029.7hPa Calm     53% 0.00in /  0mm 0.0 W/m2
22:00 51.3 °F /  10.7 °C 34.7 °F /  1.5 °C 30.41in /  1029.7hPa Calm   1.0mph /  1.6km/h 53% 0.00in /  0mm 0.0 W/m2
22:06 51.1 °F /  10.6 °C 35.1 °F /  1.7 °C 30.41in /  1029.7hPa Calm     54% 0.00in /  0mm 0.0 W/m2
22:12 50.9 °F /  10.5 °C 34.9 °F /  1.6 °C 30.41in /  1029.7hPa Calm   2.0mph /  3.2km/h 54% 0.00in /  0mm 0.0 W/m2
22:18 50.7 °F /  10.4 °C 34.7 °F /  1.5 °C 30.42in /  1030hPa Calm   1.0mph /  1.6km/h 54% 0.00in /  0mm 0.0 W/m2
22:24 50.5 °F /  10.3 °C 34.5 °F /  1.4 °C 30.42in /  1030hPa Calm     54% 0.00in /  0mm 0.0 W/m2
22:31 50.4 °F /  10.2 °C 34.9 °F /  1.6 °C 30.42in /  1030hPa SE 0.9mph /  1.4km/h 2.0mph /  3.2km/h 55% 0.00in /  0mm 0.0 W/m2
22:37 50.4 °F /  10.2 °C 34.9 °F /  1.6 °C 30.42in /  1030hPa East 2.9mph /  4.7km/h 3.0mph /  4.8km/h 55% 0.00in /  0mm 0.0 W/m2
22:43 50.4 °F /  10.2 °C 34.9 °F /  1.6 °C 30.42in /  1030hPa Calm   1.0mph /  1.6km/h 55% 0.00in /  0mm 0.0 W/m2
22:49 50.2 °F /  10.1 °C 34.7 °F /  1.5 °C 30.42in /  1030hPa Calm     55% 0.00in /  0mm 0.0 W/m2
22:55 49.8 °F /  9.9 °C 34.7 °F /  1.5 °C 30.42in /  1030hPa Calm     56% 0.00in /  0mm 0.0 W/m2
23:01 49.6 °F /  9.8 °C 34.5 °F /  1.4 °C 30.41in /  1029.7hPa Calm   1.0mph /  1.6km/h 56% 0.00in /  0mm 0.0 W/m2
23:07 49.5 °F /  9.7 °C 34.9 °F /  1.6 °C 30.41in /  1029.7hPa Calm     57% 0.00in /  0mm 0.0 W/m2
23:13 49.1 °F /  9.5 °C 34.9 °F /  1.6 °C 30.41in /  1029.7hPa Calm   1.0mph /  1.6km/h 58% 0.00in /  0mm 0.0 W/m2
23:19 48.9 °F /  9.4 °C 34.9 °F /  1.6 °C 30.41in /  1029.7hPa Calm     58% 0.00in /  0mm 0.0 W/m2
23:25 48.7 °F /  9.3 °C 34.7 °F /  1.5 °C 30.41in /  1029.7hPa Calm     58% 0.00in /  0mm 0.0 W/m2
23:31 48.7 °F /  9.3 °C 34.7 °F /  1.5 °C 30.41in /  1029.7hPa Calm   3.0mph /  4.8km/h 58% 0.00in /  0mm 0.0 W/m2
23:38 48.6 °F /  9.2 °C 34.9 °F /  1.6 °C 30.41in /  1029.7hPa Calm   2.0mph /  3.2km/h 59% 0.00in /  0mm 0.0 W/m2
23:46 48.4 °F /  9.1 °C 34.7 °F /  1.5 °C 30.41in /  1029.7hPa ENE 0.9mph /  1.4km/h 3.0mph /  4.8km/h 59% 0.00in /  0mm 0.0 W/m2
23:52 48.4 °F /  9.1 °C 34.7 °F /  1.5 °C 30.41in /  1029.7hPa Calm     59% 0.00in /  0mm 0.0 W/m2
23:58 48.4 °F /  9.1 °C 34.7 °F /  1.5 °C 30.41in /  1029.7hPa Calm   2.0mph /  3.2km/h 59% 0.00in /  0mm 0.0 W/m2
Olympia, Windhoek, Namibia
Compliments of Weather Underground - 3 mb